Time;durP1;ratioP1;P1;durP2;ratioP2;P2;SDS_P1;SDS_P2;PMS_P1;PMS_P2;Temp;Humidity;BMP_temperature;BMP_pressure;BME280_temperature;BME280_humidity;BME280_pressure;Samples;Min_cycle;Max_cycle;Signal;HPM_P1;HPM_P2
2021/09/01 00:02:00;;;;;;;9.33;5.88;;;;;;;13.90;82.93;99710.52;254996;1102;115500;-67
2021/09/01 00:07:07;;;;;;;6.05;4.80;;;;;;;13.90;83.46;99715.08;254392;1104;115693;-68
2021/09/01 00:12:11;;;;;;;10.05;6.00;;;;;;;13.88;83.26;99722.56;254543;1102;116176;-67
2021/09/01 00:17:14;;;;;;;7.80;4.77;;;;;;;13.87;83.04;99728.98;254263;1096;115353;-67
2021/09/01 00:22:17;;;;;;;5.43;4.63;;;;;;;13.87;82.94;99735.15;254054;1096;115889;-68
2021/09/01 00:27:20;;;;;;;6.90;4.93;;;;;;;13.88;83.49;99735.95;254208;1096;116238;-66
2021/09/01 00:32:23;;;;;;;8.33;5.95;;;;;;;13.91;83.43;99738.94;254413;1101;115302;-64
2021/09/01 00:37:26;;;;;;;7.93;5.95;;;;;;;13.92;83.24;99739.74;254611;1102;114942;-65
2021/09/01 00:42:30;;;;;;;6.43;5.20;;;;;;;13.93;83.03;99752.08;254911;1102;115259;-65
2021/09/01 00:47:36;;;;;;;7.73;5.13;;;;;;;13.93;83.16;99752.89;254837;1101;115957;-67
2021/09/01 00:52:40;;;;;;;5.25;4.75;;;;;;;13.90;83.22;99752.59;254661;1103;116217;-66
2021/09/01 00:57:45;;;;;;;9.13;5.83;;;;;;;13.91;83.37;99759.56;254492;1101;115284;-65
2021/09/01 01:02:49;;;;;;;7.57;5.40;;;;;;;13.90;83.54;99768.66;254614;1096;115271;-66
2021/09/01 01:07:52;;;;;;;9.63;6.13;;;;;;;13.86;83.11;99770.23;256780;1101;115440;-65
2021/09/01 01:12:55;;;;;;;7.25;6.08;;;;;;;13.83;83.26;99761.64;256306;1101;115143;-65
2021/09/01 01:17:59;;;;;;;10.48;6.13;;;;;;;13.86;82.90;99775.59;257107;1103;114691;-65
2021/09/01 01:23:01;;;;;;;10.03;5.48;;;;;;;13.88;83.47;99782.32;257188;1103;115691;-66
2021/09/01 01:28:04;;;;;;;9.30;6.40;;;;;;;13.90;82.81;99769.48;257199;1101;119382;-65
2021/09/01 01:33:08;;;;;;;9.17;5.27;;;;;;;13.90;83.20;99776.70;256493;1103;115604;-65
2021/09/01 01:38:14;;;;;;;8.88;6.40;;;;;;;13.86;82.90;99780.95;255927;1103;116527;-67
2021/09/01 01:43:16;;;;;;;5.55;5.03;;;;;;;13.81;82.94;99787.08;254587;1104;115958;-65
2021/09/01 01:48:20;;;;;;;5.70;4.83;;;;;;;13.78;82.92;99788.39;254749;1102;116074;-66
2021/09/01 01:53:23;;;;;;;13.38;6.58;;;;;;;13.77;83.02;99794.80;255272;1101;115836;-65
2021/09/01 01:58:27;;;;;;;7.68;4.68;;;;;;;13.72;82.63;99791.30;254375;1101;116977;-65
2021/09/01 02:03:30;;;;;;;8.15;5.53;;;;;;;13.65;82.90;99799.53;255102;1104;115886;-65
2021/09/01 02:08:33;;;;;;;12.23;6.30;;;;;;;13.62;82.28;99799.22;254443;1101;115895;-66
2021/09/01 02:13:36;;;;;;;8.20;4.80;;;;;;;13.59;83.15;99803.22;255848;1102;116013;-66
2021/09/01 02:18:40;;;;;;;8.77;5.90;;;;;;;13.60;83.29;99806.70;255286;1102;115878;-68
2021/09/01 02:23:43;;;;;;;8.23;6.03;;;;;;;13.61;83.53;99824.39;255191;1102;115995;-68
2021/09/01 02:28:46;;;;;;;12.20;6.60;;;;;;;13.61;83.57;99825.20;254133;1104;116510;-66
2021/09/01 02:33:50;;;;;;;7.70;6.13;;;;;;;13.63;82.98;99819.59;255161;1096;115496;-68
2021/09/01 02:38:56;;;;;;;10.43;6.27;;;;;;;13.63;83.63;99827.63;255647;1101;115943;-66
2021/09/01 02:44:00;;;;;;;15.35;6.68;;;;;;;13.60;83.39;99823.58;256034;1101;115471;-66
2021/09/01 02:49:03;;;;;;;10.27;7.27;;;;;;;13.60;83.11;99828.13;255638;1096;115852;-66
2021/09/01 02:54:05;;;;;;;8.33;7.35;;;;;;;13.59;83.33;99823.83;255845;1101;116101;-68
2021/09/01 02:59:09;;;;;;;10.88;7.30;;;;;;;13.59;83.70;99832.67;255385;1101;116814;-66
2021/09/01 03:04:11;;;;;;;8.45;6.85;;;;;;;13.60;83.72;99828.94;255278;1097;115719;-66
2021/09/01 03:09:14;;;;;;;8.10;6.53;;;;;;;13.61;83.08;99848.50;254483;1101;116919;-66
2021/09/01 03:14:17;;;;;;;11.33;7.60;;;;;;;13.59;83.82;99854.11;254582;1102;116977;-66
2021/09/01 03:19:21;;;;;;;6.73;5.17;;;;;;;13.58;83.73;99860.52;255277;1101;116899;-66
2021/09/01 03:24:26;;;;;;;7.43;6.65;;;;;;;13.58;83.11;99865.06;257433;1101;116353;-66
2021/09/01 03:29:31;;;;;;;7.60;5.55;;;;;;;13.59;83.86;99874.72;256805;1101;115875;-66
2021/09/01 03:34:35;;;;;;;7.23;6.03;;;;;;;13.60;83.40;99871.80;256780;1096;116223;-66
2021/09/01 03:39:38;;;;;;;7.20;5.23;;;;;;;13.60;83.22;99879.83;255572;1103;116461;-65
2021/09/01 03:44:40;;;;;;;9.30;5.68;;;;;;;13.54;83.30;99883.50;254789;1103;115429;-65
2021/09/01 03:49:43;;;;;;;9.83;5.73;;;;;;;13.51;83.40;99888.55;254818;1102;115878;-66
2021/09/01 03:54:46;;;;;;;6.45;4.73;;;;;;;13.53;84.00;99897.95;255163;1102;116105;-66
2021/09/01 03:59:49;;;;;;;8.90;6.18;;;;;;;13.52;83.72;99901.69;255171;1097;115369;-65
2021/09/01 04:04:52;;;;;;;12.55;5.75;;;;;;;13.52;83.33;99904.37;255093;1104;117262;-66
2021/09/01 04:09:56;;;;;;;7.63;5.53;;;;;;;13.52;83.53;99915.08;254447;1102;116321;-64
2021/09/01 04:14:58;;;;;;;8.85;5.65;;;;;;;13.52;83.82;99919.63;254631;1104;116156;-65
2021/09/01 04:20:01;;;;;;;13.40;6.55;;;;;;;13.52;84.00;99933.02;254211;1104;116588;-68
2021/09/01 04:25:05;;;;;;;10.40;6.18;;;;;;;13.55;83.64;99936.02;254564;1104;116955;-65
2021/09/01 04:30:09;;;;;;;8.67;7.10;;;;;;;13.58;83.87;99943.55;254469;1101;116987;-68
2021/09/01 04:35:14;;;;;;;12.15;6.15;;;;;;;13.60;84.08;99948.66;255913;1103;116540;-66
2021/09/01 04:40:22;;;;;;;15.65;7.65;;;;;;;13.60;83.71;99960.19;254395;1104;116456;-66
2021/09/01 04:45:26;;;;;;;9.58;6.00;;;;;;;13.63;84.32;99973.09;255152;1101;115608;-67
2021/09/01 04:50:29;;;;;;;6.50;5.15;;;;;;;13.63;83.54;99970.41;254639;1101;116829;-65
2021/09/01 04:55:33;;;;;;;10.13;5.63;;;;;;;13.65;83.78;99973.64;255531;1101;117006;-65
2021/09/01 05:00:39;;;;;;;9.43;6.60;;;;;;;13.68;84.05;99959.76;254720;1102;116103;-67
2021/09/01 05:05:42;;;;;;;9.83;6.88;;;;;;;13.72;83.63;99984.99;256544;1101;115704;-67
2021/09/01 05:10:45;;;;;;;9.23;5.07;;;;;;;13.75;83.79;99981.82;255816;1101;117226;-69
2021/09/01 05:15:48;;;;;;;9.45;6.98;;;;;;;13.80;84.01;99995.25;256158;1097;115897;-67
2021/09/01 05:20:57;;;;;;;11.40;6.30;;;;;;;13.81;84.10;99986.16;256458;1101;114707;-68
2021/09/01 05:26:05;;;;;;;6.08;5.18;;;;;;;13.85;83.60;99993.70;257246;1101;117586;-68
2021/09/01 05:31:08;;;;;;;7.98;6.40;;;;;;;13.94;83.74;100005.61;257306;1101;114744;-68
2021/09/01 05:36:12;;;;;;;7.20;5.53;;;;;;;14.02;83.52;100007.86;257068;1103;117166;-69
2021/09/01 05:41:15;;;;;;;10.03;5.83;;;;;;;14.05;83.78;100007.36;256661;1101;115260;-67
2021/09/01 05:46:19;;;;;;;13.73;8.25;;;;;;;14.07;83.51;100006.02;255292;1102;115884;-68
2021/09/01 05:51:22;;;;;;;10.28;5.35;;;;;;;14.09;83.68;100019.17;254555;1101;115957;-68
2021/09/01 05:56:34;;;;;;;9.10;6.03;;;;;;;14.11;83.03;100017.05;255126;1103;116896;-68
2021/09/01 06:01:43;;;;;;;7.20;4.83;;;;;;;14.12;83.20;100024.03;255346;1102;116254;-68
2021/09/01 06:06:50;;;;;;;8.38;4.88;;;;;;;14.14;83.17;100024.59;254254;1096;115756;-66
2021/09/01 06:11:56;;;;;;;12.98;6.35;;;;;;;14.17;83.33;100032.14;255063;1097;115844;-68
2021/09/01 06:16:59;;;;;;;6.33;5.73;;;;;;;14.24;83.15;100032.77;255017;1104;117320;-68
2021/09/01 06:22:01;;;;;;;10.60;6.08;;;;;;;14.29;83.40;100040.88;254768;1104;116321;-66
2021/09/01 06:27:04;;;;;;;15.13;7.88;;;;;;;14.39;82.93;100042.83;254761;1104;117530;-67
2021/09/01 06:32:07;;;;;;;11.10;6.50;;;;;;;14.48;83.05;100055.58;255012;1101;116583;-67
2021/09/01 06:37:10;;;;;;;7.57;5.93;;;;;;;14.62;83.20;100060.56;255490;1104;116157;-66
2021/09/01 06:42:14;;;;;;;7.20;5.75;;;;;;;14.78;82.93;100064.99;254931;1101;116499;-66
2021/09/01 06:47:17;;;;;;;6.63;5.20;;;;;;;14.90;82.89;100072.90;254480;1101;116741;-67
2021/09/01 06:52:20;;;;;;;6.55;5.93;;;;;;;15.06;82.50;100083.50;255038;1104;117434;-68
2021/09/01 06:57:24;;;;;;;5.00;4.33;;;;;;;15.43;82.11;100085.41;254133;1104;115847;-67
2021/09/01 07:02:28;;;;;;;9.83;6.07;;;;;;;15.85;82.14;100088.13;255891;1104;115647;-65
2021/09/01 07:07:32;;;;;;;8.08;5.18;;;;;;;16.27;81.54;100082.66;254874;1104;115786;-66
2021/09/01 07:12:35;;;;;;;5.73;4.50;;;;;;;16.57;80.98;100090.02;255525;1103;115495;-68
2021/09/01 07:17:41;;;;;;;9.15;5.15;;;;;;;16.68;80.25;100088.19;256112;1104;117211;-67
2021/09/01 07:22:45;;;;;;;8.23;5.25;;;;;;;16.74;79.83;100087.95;254908;1102;137284;-66
2021/09/01 07:27:48;;;;;;;4.97;3.67;;;;;;;16.96;79.43;100101.16;257406;1101;115802;-68
2021/09/01 07:32:51;;;;;;;6.15;4.75;;;;;;;17.09;79.02;100097.95;257279;1103;115439;-68
2021/09/01 07:37:55;;;;;;;8.28;5.05;;;;;;;17.10;78.58;100126.50;257058;1104;115839;-68
2021/09/01 07:42:59;;;;;;;10.30;5.15;;;;;;;17.34;78.50;100134.86;257207;1101;115663;-66
2021/09/01 07:48:05;;;;;;;5.75;4.08;;;;;;;17.58;78.12;100135.12;255610;1104;116026;-67
2021/09/01 07:53:09;;;;;;;8.08;5.18;;;;;;;17.63;77.76;100147.78;254322;1096;115226;-68
2021/09/01 07:58:12;;;;;;;8.15;4.60;;;;;;;17.78;77.08;100140.50;255027;1101;115466;-66
2021/09/01 08:03:15;;;;;;;6.20;5.00;;;;;;;17.67;77.01;100149.70;254801;1101;115627;-66
2021/09/01 08:08:18;;;;;;;8.15;4.33;;;;;;;17.70;77.04;100149.17;254904;1104;135183;-67
2021/09/01 08:13:21;;;;;;;11.65;4.93;;;;;;;17.59;76.83;100155.60;254970;1101;115763;-67
2021/09/01 08:18:25;;;;;;;7.03;5.03;;;;;;;17.80;76.76;100151.83;254314;1101;115918;-67
2021/09/01 08:23:28;;;;;;;5.00;4.00;;;;;;;18.07;76.28;100166.88;256509;1102;116102;-66
2021/09/01 08:28:31;;;;;;;5.20;4.50;;;;;;;18.28;75.77;100157.66;254329;1101;115175;-68
2021/09/01 08:33:34;;;;;;;8.95;4.68;;;;;;;18.07;75.18;100164.17;254676;1101;116127;-68
2021/09/01 08:38:37;;;;;;;8.08;4.33;;;;;;;18.07;75.64;100170.38;254314;1102;116180;-69
2021/09/01 08:43:40;;;;;;;7.85;4.90;;;;;;;18.16;75.35;100178.73;254081;1102;115763;-68
2021/09/01 08:48:44;;;;;;;5.93;4.50;;;;;;;18.45;75.30;100181.61;254661;1101;116959;-66
2021/09/01 08:53:47;;;;;;;6.28;4.03;;;;;;;18.73;75.04;100189.08;254345;1101;116156;-65
2021/09/01 08:58:52;;;;;;;10.67;4.30;;;;;;;19.14;74.40;100178.86;255517;1101;116456;-67
2021/09/01 09:03:56;;;;;;;6.65;4.35;;;;;;;19.11;73.40;100184.02;256212;1102;116282;-67
2021/09/01 09:09:10;;;;;;;4.40;3.73;;;;;;;19.28;73.97;100195.23;254338;1101;115860;-67
2021/09/01 09:14:19;;;;;;;4.28;3.75;;;;;;;19.69;72.33;100189.55;254286;1101;118251;-66
2021/09/01 09:19:48;;;;;;;5.18;3.18;;;;;;;19.79;72.12;100201.10;254162;1097;115619;-66
2021/09/01 09:25:07;;;;;;;7.65;4.00;;;;;;;20.06;71.58;100203.28;257294;1101;115305;-67
2021/09/01 09:30:40;;;;;;;8.90;4.25;;;;;;;19.67;70.40;100211.47;257194;1101;115412;-67
2021/09/01 09:35:59;;;;;;;6.03;3.68;;;;;;;19.15;70.64;100209.39;254739;1101;116095;-68
2021/09/01 09:41:08;;;;;;;5.20;3.95;;;;;;;19.23;70.96;100206.11;256825;1102;115548;-67
2021/09/01 09:46:11;;;;;;;4.80;3.50;;;;;;;19.24;70.65;100221.23;256829;1103;115698;-69
2021/09/01 09:51:18;;;;;;;7.13;5.20;;;;;;;19.55;71.02;100221.86;257221;1101;115958;-69
2021/09/01 09:56:29;;;;;;;6.27;4.27;;;;;;;19.96;70.25;100214.19;256650;1096;115709;-68
2021/09/01 10:01:33;;;;;;;5.20;4.53;;;;;;;19.86;69.59;100219.72;255351;1103;115987;-67
2021/09/01 10:06:37;;;;;;;7.43;4.18;;;;;;;19.57;69.38;100224.28;254267;1101;116759;-68
2021/09/01 10:11:46;;;;;;;4.45;4.05;;;;;;;18.97;68.97;100234.34;254749;1097;115147;-68
2021/09/01 10:16:53;;;;;;;12.48;3.23;;;;;;;18.77;69.79;100227.95;254081;1104;115486;-69
2021/09/01 10:22:02;;;;;;;4.25;3.65;;;;;;;19.15;69.99;100217.50;254110;1102;116188;-66
2021/09/01 10:27:16;;;;;;;5.40;3.30;;;;;;;19.24;69.65;100225.84;255327;1101;115114;-67
2021/09/01 10:32:20;;;;;;;4.23;3.57;;;;;;;19.34;69.59;100223.05;254479;1101;115506;-66
2021/09/01 10:37:46;;;;;;;5.25;3.80;;;;;;;19.81;69.14;100223.27;255078;1101;116036;-66
2021/09/01 10:42:51;;;;;;;6.45;3.28;;;;;;;20.00;68.65;100239.59;254384;1101;115540;-66
2021/09/01 10:48:07;;;;;;;5.80;3.68;;;;;;;20.01;68.56;100241.20;254383;1101;115276;-66
2021/09/01 10:53:23;;;;;;;5.98;3.15;;;;;;;20.24;68.39;100250.45;254320;1101;114720;-67
2021/09/01 10:58:34;;;;;;;5.10;3.45;;;;;;;20.08;67.65;100257.93;255167;1101;115423;-69
2021/09/01 11:03:47;;;;;;;5.10;3.50;;;;;;;20.02;67.76;100248.23;254339;1103;115948;-66
2021/09/01 11:08:55;;;;;;;5.75;3.90;;;;;;;20.14;67.53;100256.80;254644;1096;115741;-67
2021/09/01 11:13:58;;;;;;;3.73;3.40;;;;;;;19.96;67.01;100259.38;254058;1104;118255;-68
2021/09/01 11:19:06;;;;;;;4.60;2.75;;;;;;;19.56;66.51;100268.64;254116;1104;115160;-68
2021/09/01 11:24:16;;;;;;;5.40;3.60;;;;;;;19.82;67.26;100278.18;255687;1102;137086;-67
2021/09/01 11:29:19;;;;;;;6.28;3.73;;;;;;;20.34;67.35;100276.63;254509;1096;115231;-68
2021/09/01 11:34:23;;;;;;;4.13;3.28;;;;;;;20.63;67.49;100272.02;256981;1103;116973;-67
2021/09/01 11:39:26;;;;;;;3.40;3.18;;;;;;;20.88;65.83;100281.73;257412;1103;115640;-66
2021/09/01 11:44:30;;;;;;;4.63;3.80;;;;;;;20.39;65.56;100290.96;257362;1101;115808;-67
2021/09/01 11:49:34;;;;;;;6.07;3.30;;;;;;;20.37;66.13;100290.44;256809;1103;116688;-70
2021/09/01 11:54:41;;;;;;;4.37;3.37;;;;;;;20.72;65.32;100289.25;256482;1104;115173;-68
2021/09/01 11:59:46;;;;;;;3.38;3.05;;;;;;;20.93;65.39;100283.59;255436;1102;115135;-69
2021/09/01 12:04:50;;;;;;;4.25;3.83;;;;;;;21.05;64.75;100282.08;254367;1094;115479;-67
2021/09/01 12:10:09;;;;;;;4.18;3.08;;;;;;;21.03;64.61;100286.98;255029;1101;116017;-69
2021/09/01 12:15:18;;;;;;;3.57;3.23;;;;;;;21.11;64.24;100289.03;254479;1104;117328;-67
2021/09/01 12:20:22;;;;;;;4.88;3.20;;;;;;;20.80;63.67;100295.92;255248;1101;115859;-68
2021/09/01 12:25:28;;;;;;;3.13;2.90;;;;;;;20.77;63.20;100294.63;254068;1104;114991;-68
2021/09/01 12:30:35;;;;;;;3.38;2.83;;;;;;;20.55;63.02;100297.02;255009;1104;115219;-68
2021/09/01 12:35:39;;;;;;;7.30;3.13;;;;;;;20.21;63.30;100296.23;254402;1103;115447;-67
2021/09/01 12:40:43;;;;;;;3.78;3.38;;;;;;;20.28;63.86;100296.72;254181;1104;118275;-68
2021/09/01 12:45:47;;;;;;;4.80;2.87;;;;;;;20.50;63.57;100286.23;254258;1103;116020;-67
2021/09/01 12:50:50;;;;;;;6.27;3.97;;;;;;;20.72;63.99;100293.87;254337;1103;116174;-68
2021/09/01 12:56:00;;;;;;;3.60;3.30;;;;;;;20.65;63.07;100291.50;254069;1103;116242;-68
2021/09/01 13:01:02;;;;;;;3.77;3.40;;;;;;;20.71;62.97;100290.35;254233;1103;116333;-67
2021/09/01 13:06:07;;;;;;;3.95;3.50;;;;;;;20.52;62.46;100286.75;254521;1102;116133;-67
2021/09/01 13:11:10;;;;;;;3.57;3.33;;;;;;;20.45;62.72;100295.23;254497;1102;115397;-68
2021/09/01 13:16:15;;;;;;;4.93;4.10;;;;;;;20.46;62.67;100296.86;255030;1101;115839;-69
2021/09/01 13:21:20;;;;;;;3.45;2.93;;;;;;;20.57;62.47;100294.83;255572;1101;115365;-69
2021/09/01 13:26:24;;;;;;;4.35;4.00;;;;;;;20.79;61.96;100284.27;254191;1097;115486;-68
2021/09/01 13:31:31;;;;;;;7.70;3.45;;;;;;;20.86;62.09;100289.35;255098;1101;116693;-68
2021/09/01 13:36:35;;;;;;;3.95;3.55;;;;;;;20.87;62.34;100290.97;254483;1102;117270;-67
2021/09/01 13:41:38;;;;;;;7.10;3.60;;;;;;;20.73;62.06;100288.16;254173;1102;118535;-68
2021/09/01 13:46:41;;;;;;;3.60;3.30;;;;;;;20.68;61.80;100290.11;254434;1103;115774;-68
2021/09/01 13:51:44;;;;;;;4.10;2.90;;;;;;;20.68;61.65;100284.70;255092;1104;116419;-69
2021/09/01 13:56:48;;;;;;;3.40;3.08;;;;;;;20.49;61.69;100285.42;255972;1103;115185;-67
2021/09/01 14:01:52;;;;;;;3.83;3.15;;;;;;;20.15;61.73;100288.19;255127;1096;115034;-67
2021/09/01 14:06:57;;;;;;;3.70;3.00;;;;;;;19.77;61.96;100294.45;254757;1102;116358;-67
2021/09/01 14:12:01;;;;;;;4.78;3.70;;;;;;;19.64;62.52;100292.36;254147;1104;117090;-67
2021/09/01 14:17:05;;;;;;;4.93;3.03;;;;;;;19.58;62.94;100290.77;254441;1104;115223;-66
2021/09/01 14:22:11;;;;;;;4.25;3.15;;;;;;;19.55;63.11;100292.17;254607;1104;116310;-69
2021/09/01 14:27:15;;;;;;;6.40;3.27;;;;;;;19.52;63.08;100286.52;256301;1104;115550;-68
2021/09/01 14:32:24;;;;;;;6.90;3.50;;;;;;;19.48;63.54;100280.82;254244;1103;116525;-68
2021/09/01 14:37:42;;;;;;;5.25;3.58;;;;;;;19.50;63.44;100287.60;254326;1097;115487;-66
2021/09/01 14:42:52;;;;;;;5.80;2.75;;;;;;;19.63;63.40;100288.05;254341;1104;115737;-68
2021/09/01 14:47:59;;;;;;;2.78;2.45;;;;;;;19.73;63.14;100293.39;254385;1096;117480;-69
2021/09/01 14:53:11;;;;;;;2.78;2.53;;;;;;;19.71;62.46;100290.97;255775;1103;120290;-67
2021/09/01 14:58:16;;;;;;;3.03;2.50;;;;;;;19.62;62.47;100291.84;254362;1102;118964;-67
2021/09/01 15:03:23;;;;;;;5.27;2.43;;;;;;;19.52;62.55;100295.44;254357;1101;116455;-68
2021/09/01 15:08:30;;;;;;;9.45;2.33;;;;;;;19.45;62.54;100292.20;255480;1096;115923;-68
2021/09/01 15:13:38;;;;;;;4.58;2.43;;;;;;;19.34;62.32;100299.55;254063;1097;116835;-67
2021/09/01 15:18:44;;;;;;;2.87;2.67;;;;;;;19.23;62.25;100294.49;254908;1102;115555;-68
2021/09/01 15:23:49;;;;;;;2.43;2.23;;;;;;;19.13;62.15;100300.75;254245;1101;116784;-67
2021/09/01 15:28:53;;;;;;;2.25;2.00;;;;;;;19.10;62.65;100294.00;254670;1102;115916;-67
2021/09/01 15:33:57;;;;;;;3.28;2.93;;;;;;;19.04;62.53;100299.69;257341;1101;115094;-67
2021/09/01 15:39:01;;;;;;;4.03;3.27;;;;;;;18.93;62.37;100298.95;254976;1101;208468;-67
2021/09/01 15:44:08;;;;;;;3.57;3.00;;;;;;;18.82;62.38;100297.36;254780;1101;116649;-67
2021/09/01 15:49:16;;;;;;;3.18;2.85;;;;;;;18.69;62.45;100301.44;257053;1103;119087;-68
2021/09/01 15:54:26;;;;;;;6.73;3.25;;;;;;;18.63;62.37;100297.16;256630;1097;116468;-67
2021/09/01 15:59:37;;;;;;;2.38;2.18;;;;;;;18.58;62.31;100301.72;256065;1097;116934;-68
2021/09/01 16:04:51;;;;;;;3.58;2.10;;;;;;;18.51;62.36;100285.80;256632;1102;115603;-67
2021/09/01 16:09:59;;;;;;;6.20;2.58;;;;;;;18.47;62.79;100282.84;255942;1101;115607;-67
2021/09/01 16:15:11;;;;;;;3.28;2.63;;;;;;;18.38;62.54;100278.26;254801;1096;117333;-67
2021/09/01 16:20:37;;;;;;;5.20;2.63;;;;;;;18.30;62.95;100274.25;255399;1101;115664;-67
2021/09/01 16:25:45;;;;;;;3.30;3.03;;;;;;;18.24;62.97;100271.81;255020;1097;114936;-67
2021/09/01 16:30:52;;;;;;;6.23;2.85;;;;;;;18.18;63.50;100276.41;255457;1102;115640;-67
2021/09/01 16:36:01;;;;;;;3.88;2.85;;;;;;;18.01;63.25;100271.31;255423;1101;115051;-67
2021/09/01 16:41:09;;;;;;;4.08;3.03;;;;;;;17.83;63.39;100271.83;254145;1096;137024;-66
2021/09/01 16:46:14;;;;;;;5.75;2.90;;;;;;;17.73;63.66;100277.24;254949;1101;115752;-67
2021/09/01 16:51:37;;;;;;;7.30;2.48;;;;;;;17.55;63.63;100281.22;254636;1101;115863;-65
2021/09/01 16:56:51;;;;;;;3.00;2.60;;;;;;;17.30;64.04;100273.89;254920;1094;116131;-66
2021/09/01 17:01:54;;;;;;;4.60;2.50;;;;;;;17.17;64.41;100277.89;255178;1102;117790;-66
2021/09/01 17:07:00;;;;;;;3.08;2.10;;;;;;;17.05;64.62;100280.02;255214;1101;117728;-67
2021/09/01 17:12:05;;;;;;;2.65;2.45;;;;;;;16.90;64.24;100296.11;254234;1102;116512;-68
2021/09/01 17:17:07;;;;;;;4.63;2.60;;;;;;;16.70;65.17;100302.20;254046;1097;116288;-67
2021/09/01 17:22:10;;;;;;;2.75;2.43;;;;;;;16.51;65.35;100307.16;254381;1101;116056;-67
2021/09/01 17:27:17;;;;;;;2.97;2.70;;;;;;;16.36;65.44;100303.58;254673;1102;115797;-70
2021/09/01 17:32:24;;;;;;;9.63;2.88;;;;;;;16.21;66.10;100309.64;254034;1102;116688;-69
2021/09/01 17:37:31;;;;;;;6.15;2.50;;;;;;;16.14;66.39;100311.77;254123;1097;115750;-69
2021/09/01 17:42:41;;;;;;;5.23;3.25;;;;;;;16.06;66.64;100318.42;257037;1103;116174;-67
2021/09/01 17:47:44;;;;;;;7.30;3.50;;;;;;;15.97;66.69;100321.83;256984;1103;115879;-68
2021/09/01 17:52:48;;;;;;;5.10;2.93;;;;;;;15.81;66.85;100315.52;254668;1102;116408;-67
2021/09/01 17:57:52;;;;;;;2.33;2.13;;;;;;;15.67;67.04;100317.80;257077;1101;115633;-69
2021/09/01 18:02:55;;;;;;;5.38;2.78;;;;;;;15.59;67.36;100323.65;255851;1102;115653;-66
2021/09/01 18:07:58;;;;;;;6.40;2.45;;;;;;;15.50;67.68;100325.94;255403;1101;115568;-67
2021/09/01 18:13:01;;;;;;;2.60;2.40;;;;;;;15.44;67.88;100340.38;255925;1103;115464;-68
2021/09/01 18:18:04;;;;;;;6.10;3.70;;;;;;;15.37;68.35;100339.75;254881;1101;115800;-67
2021/09/01 18:23:07;;;;;;;4.53;3.28;;;;;;;15.25;68.32;100351.70;254281;1102;116794;-67
2021/09/01 18:28:10;;;;;;;5.98;2.58;;;;;;;15.08;68.57;100352.56;254702;1103;116944;-66
2021/09/01 18:33:13;;;;;;;8.00;3.43;;;;;;;14.94;69.20;100348.63;255205;1104;116348;-66
2021/09/01 18:38:16;;;;;;;4.10;3.70;;;;;;;14.82;69.49;100342.55;254024;1099;115735;-66
2021/09/01 18:43:24;;;;;;;9.75;3.65;;;;;;;14.70;69.49;100352.56;255229;1103;115015;-66
2021/09/01 18:48:28;;;;;;;5.63;3.20;;;;;;;14.65;69.68;100360.57;255046;1104;115928;-67
2021/09/01 18:53:33;;;;;;;7.20;3.13;;;;;;;14.60;70.08;100357.80;254200;1104;118368;-66
2021/09/01 18:58:37;;;;;;;4.63;3.28;;;;;;;14.52;70.41;100363.58;254040;1104;115520;-66
2021/09/01 19:03:53;;;;;;;9.28;3.90;;;;;;;14.42;71.10;100366.91;254476;1097;115603;-65
2021/09/01 19:09:09;;;;;;;6.30;3.47;;;;;;;14.37;71.12;100364.14;254092;1103;115978;-66
2021/09/01 19:14:16;;;;;;;6.98;4.35;;;;;;;14.28;71.08;100368.27;254659;1103;116180;-67
2021/09/01 19:19:19;;;;;;;4.20;3.33;;;;;;;14.29;71.38;100368.03;254678;1096;115445;-68
2021/09/01 19:24:24;;;;;;;4.80;4.40;;;;;;;14.26;72.07;100368.52;255641;1104;115481;-67
2021/09/01 19:29:30;;;;;;;7.55;3.13;;;;;;;14.23;72.33;100369.00;255872;1102;115784;-67
2021/09/01 19:34:38;;;;;;;9.00;4.38;;;;;;;14.26;72.07;100360.47;254581;1101;115709;-67
2021/09/01 19:39:47;;;;;;;7.30;4.05;;;;;;;14.27;72.21;100367.45;256821;1101;117359;-68
2021/09/01 19:44:52;;;;;;;5.30;3.33;;;;;;;14.28;72.92;100369.08;254893;1101;115135;-67
2021/09/01 19:49:59;;;;;;;4.65;3.90;;;;;;;14.27;72.26;100364.78;257078;1101;115323;-67
2021/09/01 19:55:06;;;;;;;5.95;4.38;;;;;;;14.29;72.40;100372.58;257058;1104;115278;-67
2021/09/01 20:00:19;;;;;;;8.30;4.18;;;;;;;14.29;73.13;100376.08;257070;1102;117142;-67
2021/09/01 20:05:25;;;;;;;7.20;4.73;;;;;;;14.27;72.55;100372.82;257290;1102;117296;-66
2021/09/01 20:10:32;;;;;;;9.78;4.43;;;;;;;14.25;72.62;100372.25;255735;1104;117330;-66
2021/09/01 20:15:38;;;;;;;7.88;4.50;;;;;;;14.22;72.99;100380.78;254366;1104;115789;-66
2021/09/01 20:20:45;;;;;;;9.50;4.00;;;;;;;14.18;72.81;100381.50;254502;1101;116457;-66
2021/09/01 20:25:54;;;;;;;11.63;3.95;;;;;;;14.08;72.86;100387.49;254474;1102;116812;-66
2021/09/01 20:31:02;;;;;;;8.15;4.10;;;;;;;13.98;73.70;100387.34;254581;1101;116499;-66
2021/09/01 20:36:12;;;;;;;6.85;3.75;;;;;;;13.90;73.69;100390.39;255171;1097;116062;-66
2021/09/01 20:41:18;;;;;;;8.08;4.55;;;;;;;13.79;73.61;100384.84;255002;1097;115647;-64
2021/09/01 20:46:25;;;;;;;8.93;4.88;;;;;;;13.73;73.67;100390.37;254442;1097;120011;-65
2021/09/01 20:51:30;;;;;;;5.05;4.15;;;;;;;13.73;73.72;100395.73;255243;1101;116782;-65
2021/09/01 20:56:37;;;;;;;6.73;4.68;;;;;;;13.69;73.69;100395.39;254544;1104;116952;-65
2021/09/01 21:01:43;;;;;;;4.75;3.20;;;;;;;13.61;73.73;100395.76;255379;1101;116113;-65
2021/09/01 21:07:11;;;;;;;4.50;3.83;;;;;;;13.58;74.38;100408.81;254566;1101;117323;-65
2021/09/01 21:12:56;;;;;;;7.28;4.65;;;;;;;13.58;74.52;100404.27;254528;1102;116594;-65
2021/09/01 21:18:12;;;;;;;6.47;4.83;;;;;;;13.59;74.65;100416.61;255138;1104;116437;-66
2021/09/01 21:23:17;;;;;;;9.73;4.90;;;;;;;13.56;74.45;100417.08;254255;1096;115959;-66
2021/09/01 21:28:24;;;;;;;6.88;4.53;;;;;;;13.58;75.06;100424.88;255948;1101;116512;-66
2021/09/01 21:33:32;;;;;;;9.23;5.20;;;;;;;13.58;74.61;100417.66;255746;1101;115848;-66
2021/09/01 21:38:38;;;;;;;4.23;3.65;;;;;;;13.59;75.28;100416.61;255657;1102;115994;-66
2021/09/01 21:43:43;;;;;;;7.00;4.65;;;;;;;13.58;75.20;100409.63;256937;1102;115415;-66
2021/09/01 21:48:47;;;;;;;6.58;3.68;;;;;;;13.53;74.30;100428.27;256031;1101;115196;-67
2021/09/01 21:53:51;;;;;;;7.08;4.20;;;;;;;13.49;74.54;100427.92;257170;1102;115447;-67
2021/09/01 21:58:53;;;;;;;5.48;3.53;;;;;;;13.47;74.96;100429.21;257374;1101;117557;-67
2021/09/01 22:03:59;;;;;;;6.63;4.13;;;;;;;13.45;74.54;100434.02;256926;1097;115161;-67
2021/09/01 22:09:02;;;;;;;5.03;4.38;;;;;;;13.43;74.58;100436.12;257069;1101;115700;-67
2021/09/01 22:14:06;;;;;;;5.80;4.38;;;;;;;13.44;74.90;100429.71;257304;1101;117282;-67
2021/09/01 22:19:09;;;;;;;9.78;3.38;;;;;;;13.44;74.65;100440.42;254259;1101;115581;-67
2021/09/01 22:24:13;;;;;;;6.83;3.50;;;;;;;13.41;74.98;100433.67;254807;1101;117284;-66
2021/09/01 22:29:17;;;;;;;7.03;3.83;;;;;;;13.31;75.41;100435.31;254501;1101;115827;-67
2021/09/01 22:34:20;;;;;;;4.45;3.70;;;;;;;13.22;75.24;100447.42;254867;1097;115862;-66
2021/09/01 22:39:24;;;;;;;8.88;4.10;;;;;;;13.20;75.28;100438.81;254759;1101;116613;-67
2021/09/01 22:44:28;;;;;;;5.45;4.13;;;;;;;13.18;75.33;100444.39;254587;1101;118008;-67
2021/09/01 22:49:31;;;;;;;3.88;3.55;;;;;;;13.14;75.62;100445.91;255642;1101;116489;-67
2021/09/01 22:54:34;;;;;;;4.15;3.48;;;;;;;13.06;75.67;100449.75;254937;1102;117529;-67
2021/09/01 22:59:37;;;;;;;4.98;3.05;;;;;;;12.96;75.25;100462.07;254370;1101;116909;-66
2021/09/01 23:04:41;;;;;;;3.63;3.00;;;;;;;12.89;75.81;100456.83;255052;1101;116025;-65
2021/09/01 23:09:44;;;;;;;4.58;3.40;;;;;;;12.76;75.30;100465.09;254653;1097;117099;-68